Time;durP1;ratioP1;P1;durP2;ratioP2;P2;SDS_P1;SDS_P2;PMS_P1;PMS_P2;Temp;Humidity;BMP_temperature;BMP_pressure;BME280_temperature;BME280_humidity;BME280_pressure;Samples;Min_cycle;Max_cycle;Signal;HPM_P1;HPM_P2
2021/04/07 06:42:32;;;;;;;3.30;0.80;;;2.50;99.90;;;;;;6098550;23;20191;-74
2021/04/07 06:44:59;;;;;;;2.43;0.63;;;2.50;99.90;;;;;;6099039;23;20194;-73
2021/04/07 06:47:26;;;;;;;7.60;1.00;;;2.60;99.90;;;;;;6099006;23;20207;-74
2021/04/07 06:49:53;;;;;;;6.27;0.80;;;2.60;99.90;;;;;;6097985;23;20184;-73
2021/04/07 06:52:21;;;;;;;4.33;0.70;;;2.60;99.90;;;;;;6098585;23;20186;-73
2021/04/07 06:54:48;;;;;;;6.53;0.70;;;2.60;99.90;;;;;;6098496;23;20639;-74
2021/04/07 06:57:16;;;;;;;4.13;1.07;;;2.70;99.90;;;;;;6098567;23;20207;-74
2021/04/07 06:59:44;;;;;;;2.33;0.70;;;2.80;99.90;;;;;;6098339;23;20243;-73
2021/04/07 07:02:11;;;;;;;5.97;1.10;;;2.80;99.90;;;;;;6098841;23;20179;-73
2021/04/07 07:04:37;;;;;;;1.53;0.60;;;2.90;99.90;;;;;;6098716;23;20179;-73
2021/04/07 07:07:05;;;;;;;3.33;0.67;;;2.90;99.90;;;;;;6098670;23;20199;-74
2021/04/07 07:09:31;;;;;;;2.73;0.93;;;3.00;99.90;;;;;;6098469;23;20214;-74
2021/04/07 07:11:58;;;;;;;3.47;0.70;;;3.00;99.90;;;;;;6098035;23;20187;-73
2021/04/07 07:14:24;;;;;;;1.90;0.60;;;3.20;99.90;;;;;;6098245;23;20179;-74
2021/04/07 07:16:53;;;;;;;4.47;0.93;;;3.20;99.90;;;;;;6098363;23;20199;-73
2021/04/07 07:19:23;;;;;;;1.80;0.60;;;3.30;99.90;;;;;;6098540;23;20218;-75
2021/04/07 07:21:54;;;;;;;0.80;0.50;;;3.20;99.90;;;;;;6098570;23;20180;-74
2021/04/07 07:24:31;;;;;;;1.50;0.63;;;3.10;99.90;;;;;;6098237;23;20180;-74
2021/04/07 07:26:57;;;;;;;2.47;0.57;;;3.00;99.90;;;;;;6098254;23;20203;-74
2021/04/07 07:29:25;;;;;;;3.43;0.63;;;3.00;99.90;;;;;;6095574;23;20191;-74
2021/04/07 07:32:02;;;;;;;2.73;0.67;;;3.00;99.90;;;;;;6097153;23;20183;-73
2021/04/07 07:34:29;;;;;;;1.57;0.57;;;3.00;99.90;;;;;;6098183;23;20262;-73
2021/04/07 07:36:56;;;;;;;2.00;0.53;;;2.90;99.90;;;;;;6097943;23;20535;-73
2021/04/07 07:39:24;;;;;;;2.10;0.80;;;2.90;99.90;;;;;;6097462;23;20274;-73
2021/04/07 07:41:51;;;;;;;5.57;0.73;;;2.90;99.90;;;;;;6097592;23;20198;-73
2021/04/07 07:44:18;;;;;;;2.17;0.43;;;2.90;99.90;;;;;;6098022;23;20266;-73
2021/04/07 07:46:46;;;;;;;3.50;0.60;;;3.00;99.90;;;;;;6097473;23;20501;-75
2021/04/07 07:49:18;;;;;;;2.27;0.50;;;3.00;99.90;;;;;;6097169;23;20187;-74
2021/04/07 07:51:45;;;;;;;4.00;0.73;;;2.90;99.90;;;;;;6097538;23;20186;-74
2021/04/07 07:54:16;;;;;;;2.67;0.77;;;3.00;99.90;;;;;;6097931;23;20183;-74
2021/04/07 07:56:43;;;;;;;2.17;0.87;;;3.10;99.90;;;;;;6097228;23;20203;-74
2021/04/07 07:59:10;;;;;;;4.97;0.73;;;3.20;99.90;;;;;;6097018;23;20670;-74
2021/04/07 08:01:47;;;;;;;1.00;0.67;;;3.20;99.90;;;;;;6097845;23;20191;-74
2021/04/07 08:04:14;;;;;;;0.50;0.33;;;3.30;99.90;;;;;;6097605;23;20190;-75
2021/04/07 08:06:41;;;;;;;1.70;0.60;;;3.30;99.90;;;;;;6097998;23;20282;-74
2021/04/07 08:09:09;;;;;;;5.07;0.40;;;3.30;99.90;;;;;;6097456;23;20183;-74
2021/04/07 08:11:35;;;;;;;2.53;0.70;;;3.40;99.90;;;;;;6097535;23;20179;-73
2021/04/07 08:14:03;;;;;;;2.10;0.40;;;3.50;99.90;;;;;;6097646;23;20184;-72
2021/04/07 08:16:31;;;;;;;0.87;0.40;;;3.70;99.90;;;;;;6097709;23;20180;-73
2021/04/07 08:18:58;;;;;;;4.03;1.27;;;3.60;99.90;;;;;;6097596;23;20211;-72
2021/04/07 08:21:25;;;;;;;4.10;0.77;;;3.70;99.90;;;;;;6097159;23;20244;-71
2021/04/07 08:23:55;;;;;;;2.23;0.73;;;3.60;99.90;;;;;;6097556;23;20201;-71
2021/04/07 08:26:24;;;;;;;0.30;0.20;;;3.60;99.90;;;;;;6097142;23;20231;-71
2021/04/07 08:28:52;;;;;;;2.23;0.70;;;3.60;99.90;;;;;;6097479;23;20190;-72
2021/04/07 08:31:19;;;;;;;3.30;0.73;;;3.70;99.90;;;;;;6097134;23;20555;-72
2021/04/07 08:33:46;;;;;;;4.57;0.73;;;3.90;99.90;;;;;;6097757;23;20661;-72
2021/04/07 08:36:16;;;;;;;2.00;0.67;;;4.30;99.90;;;;;;6097785;23;20183;-74
2021/04/07 08:38:42;;;;;;;1.33;0.53;;;4.80;99.90;;;;;;6097743;23;20187;-72
2021/04/07 08:41:11;;;;;;;2.67;0.67;;;4.80;99.90;;;;;;6097311;23;20188;-73
2021/04/07 08:43:37;;;;;;;2.13;0.70;;;4.80;99.90;;;;;;6097797;23;20499;-71
2021/04/07 08:46:14;;;;;;;1.00;0.60;;;4.90;99.90;;;;;;6097190;23;20179;-72
2021/04/07 08:48:41;;;;;;;4.93;0.97;;;4.80;99.90;;;;;;6097399;23;20199;-73
2021/04/07 08:51:08;;;;;;;7.47;1.07;;;4.70;99.90;;;;;;6097305;23;20202;-72
2021/04/07 08:53:38;;;;;;;2.33;1.03;;;4.70;99.90;;;;;;6097234;23;20186;-72
2021/04/07 08:56:06;;;;;;;2.37;1.03;;;5.10;99.90;;;;;;6097301;23;20180;-76
2021/04/07 08:58:34;;;;;;;3.60;0.83;;;5.50;99.90;;;;;;6092254;23;20203;-67
2021/04/07 09:01:01;;;;;;;1.53;0.50;;;5.40;99.90;;;;;;6096936;23;20234;-76
2021/04/07 09:03:31;;;;;;;1.20;0.67;;;5.50;99.90;;;;;;6092644;23;20643;-67
2021/04/07 09:05:58;;;;;;;1.33;0.70;;;5.50;99.90;;;;;;6094437;23;20190;-82
2021/04/07 09:08:26;;;;;;;3.13;0.77;;;5.50;99.90;;;;;;6095541;23;20204;-82
2021/04/07 09:10:54;;;;;;;2.10;0.67;;;5.40;99.90;;;;;;6095301;23;20215;-81
2021/04/07 09:13:23;;;;;;;2.87;0.73;;;5.40;99.90;;;;;;6095559;23;20183;-79
2021/04/07 09:15:52;;;;;;;5.23;0.80;;;5.40;99.90;;;;;;6095880;23;20180;-72
2021/04/07 09:18:31;;;;;;;1.73;0.70;;;5.60;99.90;;;;;;6095095;23;20227;-74
2021/04/07 09:20:58;;;;;;;1.60;0.70;;;5.60;99.90;;;;;;6095411;23;20218;-71
2021/04/07 09:23:28;;;;;;;2.20;0.60;;;5.50;99.90;;;;;;6095431;23;20185;-70
2021/04/07 09:25:58;;;;;;;5.90;1.10;;;5.50;99.90;;;;;;6094635;23;20544;-75
2021/04/07 09:28:33;;;;;;;1.53;0.70;;;5.60;99.90;;;;;;6095223;23;20230;-71
2021/04/07 09:31:18;;;;;;;3.67;0.80;;;5.60;99.90;;;;;;6095902;23;20189;-71
2021/04/07 09:33:46;;;;;;;2.17;0.80;;;5.70;99.90;;;;;;6092044;23;20183;-71
2021/04/07 09:36:13;;;;;;;4.67;0.93;;;5.70;99.90;;;;;;6095217;23;20179;-69
2021/04/07 09:38:44;;;;;;;2.83;1.07;;;5.60;99.90;;;;;;6094784;23;20204;-71
2021/04/07 09:41:12;;;;;;;4.63;0.90;;;5.60;99.90;;;;;;6094105;23;20187;-70
2021/04/07 09:43:40;;;;;;;6.40;0.77;;;5.80;99.90;;;;;;6094882;23;20186;-71
2021/04/07 09:46:06;;;;;;;6.57;1.20;;;6.00;99.90;;;;;;6095251;23;20179;-71
2021/04/07 09:48:42;;;;;;;2.97;1.00;;;6.10;99.90;;;;;;6094063;23;20623;-72
2021/04/07 09:51:30;;;;;;;3.10;0.80;;;6.30;99.90;;;;;;6094433;23;20183;-71
2021/04/07 09:54:11;;;;;;;4.03;0.80;;;6.40;99.90;;;;;;6094624;23;20187;-69
2021/04/07 09:56:55;;;;;;;2.13;0.63;;;6.40;99.90;;;;;;6094203;23;20206;-71
2021/04/07 09:59:37;;;;;;;8.10;0.97;;;6.30;99.90;;;;;;6094685;23;20209;-72
2021/04/07 10:02:06;;;;;;;4.57;1.10;;;6.50;99.90;;;;;;6094911;23;20293;-72
2021/04/07 10:04:35;;;;;;;1.73;0.60;;;6.80;99.90;;;;;;6093949;23;20670;-72
2021/04/07 10:07:15;;;;;;;2.07;0.53;;;6.90;99.90;;;;;;6094934;23;20564;-73
2021/04/07 10:09:43;;;;;;;3.87;0.80;;;6.90;99.90;;;;;;6096121;23;20267;-70
2021/04/07 10:12:11;;;;;;;4.77;0.60;;;7.10;99.90;;;;;;6090944;23;20238;-73
2021/04/07 10:14:37;;;;;;;2.17;0.73;;;7.30;99.90;;;;;;6094971;23;20258;-72
2021/04/07 10:17:14;;;;;;;2.63;0.70;;;7.50;99.90;;;;;;6094679;23;20686;-72
2021/04/07 10:19:42;;;;;;;2.77;0.83;;;7.50;99.90;;;;;;6093900;23;20282;-71
2021/04/07 10:22:15;;;;;;;5.13;0.93;;;7.60;99.90;;;;;;6093958;23;20189;-72
2021/04/07 10:24:42;;;;;;;2.90;0.70;;;7.60;99.90;;;;;;6094268;23;20626;-73
2021/04/07 10:27:08;;;;;;;7.37;1.30;;;7.80;99.90;;;;;;6096265;23;20199;-73
2021/04/07 10:29:34;;;;;;;4.93;0.73;;;7.80;99.90;;;;;;6096641;23;20188;-70
2021/04/07 10:32:01;;;;;;;9.20;0.73;;;8.10;99.90;;;;;;6091828;23;20187;-73
2021/04/07 10:34:32;;;;;;;7.67;0.90;;;7.90;99.90;;;;;;6094792;23;20180;-72
2021/04/07 10:36:59;;;;;;;4.53;0.90;;;7.90;99.90;;;;;;6094726;23;20208;-73
2021/04/07 10:39:35;;;;;;;4.83;1.03;;;7.90;99.90;;;;;;6094488;23;20752;-73
2021/04/07 10:42:02;;;;;;;4.80;0.70;;;7.80;99.90;;;;;;6094723;23;20191;-73
2021/04/07 10:44:30;;;;;;;2.53;1.10;;;7.60;99.90;;;;;;6095147;23;20185;-72
2021/04/07 10:46:56;;;;;;;2.97;0.80;;;7.30;99.90;;;;;;6094245;23;20512;-73
2021/04/07 10:49:24;;;;;;;3.87;1.00;;;7.30;99.90;;;;;;6094620;23;20190;-72
2021/04/07 10:52:00;;;;;;;2.23;0.90;;;7.40;99.90;;;;;;6095247;23;20183;-71
2021/04/07 10:54:27;;;;;;;7.43;1.07;;;7.50;99.90;;;;;;6094518;23;20187;-74
2021/04/07 10:57:04;;;;;;;1.63;0.90;;;7.40;99.90;;;;;;6094617;23;20207;-75
2021/04/07 10:59:31;;;;;;;3.27;0.70;;;7.60;99.90;;;;;;6094989;23;20230;-76
2021/04/07 11:01:58;;;;;;;4.20;1.20;;;7.50;99.90;;;;;;6094214;23;20204;-73
2021/04/07 11:04:27;;;;;;;7.10;0.70;;;7.60;99.90;;;;;;6096632;23;20231;-72
2021/04/07 11:06:56;;;;;;;3.67;0.77;;;7.70;99.90;;;;;;6094877;23;20208;-76
2021/04/07 11:09:25;;;;;;;3.93;0.87;;;7.70;99.90;;;;;;6094136;23;20179;-74
2021/04/07 11:11:54;;;;;;;3.90;0.90;;;7.70;99.90;;;;;;6094024;23;20655;-74
2021/04/07 11:14:21;;;;;;;6.77;1.00;;;7.80;99.90;;;;;;6095919;23;20235;-75
2021/04/07 11:16:56;;;;;;;4.87;0.90;;;7.70;99.90;;;;;;6098059;23;20230;-76
2021/04/07 11:19:22;;;;;;;8.83;1.20;;;7.40;99.90;;;;;;6096473;23;20203;-76
2021/04/07 11:21:51;;;;;;;2.57;0.80;;;7.20;99.90;;;;;;6095912;23;20183;-73
2021/04/07 11:24:18;;;;;;;3.97;1.00;;;7.20;99.90;;;;;;6097260;23;20183;-74
2021/04/07 11:26:45;;;;;;;7.30;1.00;;;7.20;99.90;;;;;;6096869;23;20206;-74
2021/04/07 11:29:11;;;;;;;4.83;0.93;;;7.10;99.90;;;;;;6097494;23;20188;-73
2021/04/07 11:31:41;;;;;;;5.57;0.97;;;7.10;99.90;;;;;;6097011;23;20179;-73
2021/04/07 11:34:09;;;;;;;3.37;0.73;;;7.10;99.90;;;;;;6098213;23;20184;-73
2021/04/07 11:36:51;;;;;;;2.63;0.53;;;7.00;99.90;;;;;;6098110;23;20591;-73
2021/04/07 11:39:22;;;;;;;5.07;0.93;;;6.90;99.90;;;;;;6098514;23;20203;-72
2021/04/07 11:42:05;;;;;;;4.17;0.70;;;6.90;99.90;;;;;;6097647;23;20192;-73
2021/04/07 11:44:31;;;;;;;2.60;0.90;;;6.90;99.90;;;;;;6098167;23;20218;-73
2021/04/07 11:46:59;;;;;;;6.70;1.10;;;6.90;99.90;;;;;;6098027;23;20204;-73
2021/04/07 11:49:25;;;;;;;5.57;0.90;;;6.90;99.90;;;;;;6097916;23;20183;-73
2021/04/07 11:51:52;;;;;;;6.30;1.10;;;6.90;99.90;;;;;;6097956;23;20187;-73
2021/04/07 11:54:19;;;;;;;3.03;1.00;;;6.80;99.90;;;;;;6097604;23;20535;-73
2021/04/07 11:56:47;;;;;;;3.33;0.57;;;7.00;99.90;;;;;;6097441;23;20223;-73
2021/04/07 11:59:15;;;;;;;6.33;1.33;;;7.00;99.90;;;;;;6097572;23;20231;-73
2021/04/07 12:01:43;;;;;;;6.57;0.77;;;7.10;99.90;;;;;;6097641;23;20187;-73
2021/04/07 12:04:09;;;;;;;3.57;0.83;;;7.10;99.90;;;;;;6097586;23;20190;-73
2021/04/07 12:06:36;;;;;;;4.27;1.00;;;7.20;99.90;;;;;;6097692;23;20183;-73
2021/04/07 12:09:04;;;;;;;4.50;0.90;;;7.40;99.90;;;;;;6097701;23;20184;-73
2021/04/07 12:11:31;;;;;;;3.93;1.20;;;7.70;99.90;;;;;;6097531;23;20179;-73
2021/04/07 12:13:58;;;;;;;3.90;1.03;;;8.10;99.90;;;;;;6097712;23;20179;-73
2021/04/07 12:16:25;;;;;;;3.67;0.67;;;8.30;99.90;;;;;;6097381;23;20631;-73
2021/04/07 12:18:51;;;;;;;3.70;0.90;;;8.40;99.90;;;;;;6097391;23;20646;-73
2021/04/07 12:21:18;;;;;;;5.57;0.80;;;8.50;99.90;;;;;;6097252;23;20183;-74
2021/04/07 12:23:46;;;;;;;3.27;0.80;;;8.30;99.90;;;;;;6097653;23;20183;-73
2021/04/07 12:26:14;;;;;;;4.37;1.00;;;8.20;99.90;;;;;;6096965;23;20183;-74
2021/04/07 12:28:41;;;;;;;1.43;0.80;;;8.10;99.90;;;;;;6097301;23;20686;-73
2021/04/07 12:31:09;;;;;;;6.30;0.70;;;7.80;99.90;;;;;;6097362;23;20190;-73
2021/04/07 12:33:36;;;;;;;8.87;0.80;;;7.80;99.90;;;;;;6097591;23;20190;-73
2021/04/07 12:36:03;;;;;;;5.33;0.80;;;7.90;99.90;;;;;;6097616;23;20186;-73
2021/04/07 12:38:31;;;;;;;4.93;0.80;;;8.10;99.90;;;;;;6098092;23;20204;-73
2021/04/07 12:40:59;;;;;;;4.83;0.60;;;8.00;99.90;;;;;;6096936;23;20535;-71
2021/04/07 12:43:26;;;;;;;3.40;0.57;;;8.00;99.90;;;;;;6096967;23;20693;-71
2021/04/07 12:45:52;;;;;;;4.77;0.50;;;8.00;99.90;;;;;;6097236;23;20514;-71
2021/04/07 12:48:19;;;;;;;4.60;0.60;;;7.90;99.90;;;;;;6097548;23;20204;-71
2021/04/07 12:50:47;;;;;;;3.00;0.60;;;8.10;99.90;;;;;;6097083;23;20702;-71
2021/04/07 12:53:13;;;;;;;3.80;1.00;;;8.20;99.90;;;;;;6090213;23;20184;-71
2021/04/07 12:55:39;;;;;;;6.73;1.07;;;8.40;99.90;;;;;;6095671;23;20705;-72
2021/04/07 12:58:06;;;;;;;3.63;1.10;;;8.60;99.90;;;;;;6095700;23;20320;-72
2021/04/07 13:00:32;;;;;;;1.83;0.67;;;8.70;99.90;;;;;;6095050;23;20211;-72
2021/04/07 13:02:58;;;;;;;0.80;0.43;;;8.80;99.90;;;;;;6095533;23;20180;-72
2021/04/07 13:05:25;;;;;;;0.77;0.40;;;9.00;99.90;;;;;;6095564;23;20180;-72
2021/04/07 13:07:52;;;;;;;3.77;1.03;;;8.90;99.90;;;;;;6095082;23;20203;-70
2021/04/07 13:10:19;;;;;;;5.83;0.90;;;9.00;99.90;;;;;;6095609;23;20189;-72
2021/04/07 13:12:46;;;;;;;5.23;0.70;;;8.90;99.90;;;;;;6095577;23;20536;-79
2021/04/07 13:15:13;;;;;;;3.43;0.60;;;8.80;99.90;;;;;;6094888;23;20183;-71
2021/04/07 13:17:40;;;;;;;3.90;0.60;;;8.90;99.90;;;;;;6095036;23;20678;-72
2021/04/07 13:20:09;;;;;;;4.73;0.50;;;8.70;99.90;;;;;;6095105;23;20234;-73
2021/04/07 13:22:36;;;;;;;3.60;0.60;;;8.60;99.90;;;;;;6094490;23;20204;-73
2021/04/07 13:25:04;;;;;;;5.27;1.00;;;8.40;99.90;;;;;;6095300;23;20266;-74
2021/04/07 13:27:33;;;;;;;5.23;0.93;;;8.50;99.90;;;;;;6095270;23;20247;-73
2021/04/07 13:30:00;;;;;;;1.10;0.43;;;8.90;99.90;;;;;;6094326;23;20639;-74
2021/04/07 13:32:27;;;;;;;3.57;1.00;;;9.20;99.90;;;;;;6094719;23;20202;-73
2021/04/07 13:35:00;;;;;;;2.43;0.50;;;9.40;99.90;;;;;;6095356;23;20184;-74
2021/04/07 13:37:35;;;;;;;6.40;0.70;;;9.40;97.50;;;;;;6094605;23;20211;-73
2021/04/07 13:40:07;;;;;;;2.97;0.67;;;9.20;97.20;;;;;;6095681;23;20530;-73
2021/04/07 13:42:45;;;;;;;2.83;0.60;;;9.00;98.00;;;;;;6095569;23;20664;-73
2021/04/07 13:45:12;;;;;;;1.10;0.53;;;8.80;97.20;;;;;;6094695;23;20262;-74
2021/04/07 13:47:43;;;;;;;2.60;0.90;;;8.70;97.60;;;;;;6095256;23;20203;-74
2021/04/07 13:50:10;;;;;;;2.10;0.40;;;8.60;97.50;;;;;;6094843;23;20190;-72
2021/04/07 13:52:36;;;;;;;4.07;0.67;;;8.70;98.00;;;;;;6095236;23;20187;-73
2021/04/07 13:55:05;;;;;;;4.77;0.60;;;8.70;96.90;;;;;;6095810;23;20180;-73
2021/04/07 13:57:31;;;;;;;1.60;0.83;;;8.50;97.10;;;;;;6095937;23;20258;-74
2021/04/07 13:59:59;;;;;;;3.97;0.63;;;8.30;97.50;;;;;;6094074;23;20207;-74
2021/04/07 14:02:28;;;;;;;4.20;0.73;;;8.20;96.80;;;;;;6095237;23;20502;-73
2021/04/07 14:04:55;;;;;;;3.13;0.57;;;8.10;96.30;;;;;;6094857;23;20187;-75
2021/04/07 14:07:22;;;;;;;2.60;0.53;;;8.10;95.20;;;;;;6094095;23;20253;-74
2021/04/07 14:09:49;;;;;;;0.93;0.47;;;8.20;93.20;;;;;;6095439;23;20208;-74
2021/04/07 14:12:17;;;;;;;0.77;0.40;;;8.20;93.50;;;;;;6094640;23;20634;-73
2021/04/07 14:14:44;;;;;;;2.73;0.50;;;8.40;93.30;;;;;;6094501;23;20184;-73
2021/04/07 14:17:11;;;;;;;2.20;0.70;;;8.30;93.10;;;;;;6096236;23;20222;-77
2021/04/07 14:19:37;;;;;;;4.53;0.60;;;8.20;93.70;;;;;;6095005;23;20207;-74
2021/04/07 14:22:04;;;;;;;4.67;0.70;;;8.30;93.40;;;;;;6094550;23;20183;-77
2021/04/07 14:24:30;;;;;;;2.40;0.50;;;8.40;92.60;;;;;;6095081;23;20190;-72
2021/04/07 14:27:02;;;;;;;2.07;0.70;;;8.20;93.20;;;;;;6093496;23;20203;-72
2021/04/07 14:29:29;;;;;;;4.83;1.37;;;8.40;93.40;;;;;;6095974;23;20187;-76
2021/04/07 14:31:56;;;;;;;1.70;0.50;;;8.70;93.40;;;;;;6094982;23;20184;-75
2021/04/07 14:34:22;;;;;;;4.73;0.53;;;9.00;92.80;;;;;;6094466;23;20355;-75
2021/04/07 14:36:48;;;;;;;3.60;0.70;;;8.90;91.40;;;;;;6095297;23;20203;-75
2021/04/07 14:39:15;;;;;;;1.50;0.63;;;8.60;91.50;;;;;;6094791;23;20179;-75
2021/04/07 14:41:42;;;;;;;2.80;0.70;;;8.60;91.30;;;;;;6093395;23;20643;-76
2021/04/07 14:44:09;;;;;;;3.60;0.53;;;8.50;92.40;;;;;;6094379;23;20615;-74
2021/04/07 14:46:36;;;;;;;3.83;0.60;;;8.50;93.70;;;;;;6094271;23;20184;-75
2021/04/07 14:49:02;;;;;;;1.03;0.43;;;8.40;93.80;;;;;;6094689;23;20186;-78
2021/04/07 14:51:31;;;;;;;5.20;0.90;;;8.30;92.60;;;;;;6096841;23;20187;-78
2021/04/07 14:54:04;;;;;;;0.90;0.50;;;8.00;93.10;;;;;;6097332;23;20218;-72
2021/04/07 14:56:31;;;;;;;1.90;0.53;;;7.90;92.60;;;;;;6098553;23;20191;-74
2021/04/07 14:58:57;;;;;;;1.47;0.63;;;7.90;91.90;;;;;;6098338;23;20179;-73
2021/04/07 15:01:23;;;;;;;3.77;0.40;;;7.80;92.20;;;;;;6098114;23;20261;-74
2021/04/07 15:03:51;;;;;;;0.87;0.40;;;7.80;92.60;;;;;;6098488;23;20191;-74
2021/04/07 15:06:18;;;;;;;3.47;0.50;;;7.70;92.90;;;;;;6098912;23;20179;-74
2021/04/07 15:08:45;;;;;;;1.00;0.43;;;7.40;92.50;;;;;;6098759;23;20184;-74
2021/04/07 15:11:12;;;;;;;0.70;0.50;;;7.30;93.60;;;;;;6098335;23;20666;-74
2021/04/07 15:13:39;;;;;;;2.00;0.83;;;7.20;92.10;;;;;;6098428;23;20184;-74
2021/04/07 15:16:07;;;;;;;0.67;0.40;;;7.20;92.90;;;;;;6098381;23;20266;-73
2021/04/07 15:18:35;;;;;;;1.43;0.43;;;7.30;93.30;;;;;;6099802;23;20286;-75
2021/04/07 15:21:03;;;;;;;0.67;0.40;;;7.40;93.40;;;;;;6099807;23;20338;-72
2021/04/07 15:23:30;;;;;;;0.87;0.50;;;7.30;91.70;;;;;;6097660;23;20190;-73
2021/04/07 15:26:01;;;;;;;3.20;0.70;;;7.20;91.70;;;;;;6097805;23;20179;-73
2021/04/07 15:28:37;;;;;;;1.87;0.53;;;7.30;92.10;;;;;;6098042;23;20203;-73
2021/04/07 15:31:06;;;;;;;1.60;0.60;;;7.10;92.10;;;;;;6098105;23;20218;-73
2021/04/07 15:33:33;;;;;;;1.00;0.37;;;7.20;92.80;;;;;;6097962;23;20262;-73
2021/04/07 15:36:00;;;;;;;3.73;0.70;;;7.10;92.60;;;;;;6097914;23;20240;-73
2021/04/07 15:38:28;;;;;;;0.50;0.40;;;7.10;92.40;;;;;;6093173;23;20512;-73
2021/04/07 15:40:56;;;;;;;1.80;0.60;;;7.00;91.10;;;;;;6097484;23;20207;-73
2021/04/07 15:43:23;;;;;;;1.17;0.50;;;7.00;91.50;;;;;;6097211;23;20183;-73
2021/04/07 15:45:50;;;;;;;3.07;0.63;;;7.00;91.60;;;;;;6097615;23;20234;-73
2021/04/07 15:48:16;;;;;;;0.50;0.37;;;7.00;92.20;;;;;;6097751;23;20215;-73
2021/04/07 15:50:43;;;;;;;1.17;0.57;;;6.80;90.70;;;;;;6097393;23;20493;-74
2021/04/07 15:53:14;;;;;;;3.33;0.50;;;6.90;91.10;;;;;;6097916;23;20180;-73
2021/04/07 15:55:42;;;;;;;4.43;0.70;;;6.90;91.60;;;;;;6097377;23;20190;-73
2021/04/07 15:58:09;;;;;;;4.10;0.73;;;6.90;91.70;;;;;;6095928;23;20239;-72
2021/04/07 16:00:36;;;;;;;4.57;0.60;;;6.80;91.10;;;;;;6097383;23;20294;-73
2021/04/07 16:03:02;;;;;;;3.33;0.60;;;6.90;91.40;;;;;;6097396;23;20179;-73
2021/04/07 16:05:29;;;;;;;3.80;0.50;;;7.00;90.80;;;;;;6096956;23;20634;-74
2021/04/07 16:07:56;;;;;;;0.50;0.30;;;7.00;90.50;;;;;;6097091;23;20567;-72
2021/04/07 16:10:22;;;;;;;1.60;0.57;;;6.90;90.80;;;;;;6097621;23;20180;-73
2021/04/07 16:12:49;;;;;;;1.40;0.67;;;6.80;90.50;;;;;;6096817;23;20674;-72
2021/04/07 16:15:16;;;;;;;4.53;1.00;;;6.70;89.90;;;;;;6097380;23;20190;-74
2021/04/07 16:17:42;;;;;;;1.47;0.93;;;6.70;90.90;;;;;;6097663;23;20205;-73
2021/04/07 16:20:10;;;;;;;1.50;0.47;;;6.70;90.80;;;;;;6097620;23;20203;-73
2021/04/07 16:22:36;;;;;;;3.30;0.80;;;6.70;91.70;;;;;;6097441;23;20532;-73
2021/04/07 16:25:05;;;;;;;1.07;0.83;;;6.80;91.10;;;;;;6096970;23;20706;-73
2021/04/07 16:27:31;;;;;;;3.10;0.93;;;6.80;90.80;;;;;;6097491;23;20205;-73
2021/04/07 16:29:58;;;;;;;3.43;0.80;;;6.80;90.80;;;;;;6097236;23;20188;-73
2021/04/07 16:32:25;;;;;;;1.03;0.60;;;6.60;91.20;;;;;;6097602;23;20179;-73
2021/04/07 16:34:51;;;;;;;3.90;0.70;;;6.70;91.20;;;;;;6097124;23;20231;-74
2021/04/07 16:37:18;;;;;;;1.77;0.60;;;6.70;91.30;;;;;;6096979;23;20578;-73
2021/04/07 16:39:44;;;;;;;1.33;0.70;;;6.60;91.10;;;;;;6097160;23;20210;-73
2021/04/07 16:42:11;;;;;;;1.20;0.60;;;6.60;91.40;;;;;;6097309;23;20192;-74
2021/04/07 16:44:37;;;;;;;0.97;0.50;;;6.30;91.30;;;;;;6097573;23;20183;-74
2021/04/07 16:47:05;;;;;;;2.63;0.80;;;6.40;92.00;;;;;;6097323;23;20259;-73
2021/04/07 16:49:31;;;;;;;1.60;0.70;;;6.40;92.10;;;;;;6097321;23;20179;-73
2021/04/07 16:51:57;;;;;;;1.13;0.50;;;6.40;91.90;;;;;;6097376;23;20191;-72
2021/04/07 16:54:24;;;;;;;1.37;0.70;;;6.40;91.60;;;;;;6097039;23;20234;-71
2021/04/07 16:56:51;;;;;;;0.80;0.70;;;6.40;92.20;;;;;;6096992;23;20679;-72
2021/04/07 16:59:19;;;;;;;5.10;1.00;;;6.50;92.20;;;;;;6097243;23;20555;-74
2021/04/07 17:01:46;;;;;;;3.10;0.90;;;6.60;92.40;;;;;;6093576;23;20188;-71
2021/04/07 17:04:13;;;;;;;0.93;0.50;;;6.60;92.40;;;;;;6097116;23;20184;-72
2021/04/07 17:06:39;;;;;;;7.37;0.80;;;6.60;91.20;;;;;;6096696;23;20199;-72
2021/04/07 17:09:06;;;;;;;1.63;0.80;;;6.70;91.10;;;;;;6097181;23;20186;-71
2021/04/07 17:11:33;;;;;;;2.67;0.80;;;6.60;92.00;;;;;;6096586;23;20247;-71
2021/04/07 17:13:59;;;;;;;2.30;0.60;;;6.40;92.10;;;;;;6096545;23;20183;-73
2021/04/07 17:16:25;;;;;;;2.73;0.63;;;6.40;92.70;;;;;;6095592;23;20425;-74
2021/04/07 17:18:52;;;;;;;2.80;0.70;;;6.40;92.50;;;;;;6097529;23;20183;-74
2021/04/07 17:21:20;;;;;;;2.27;0.67;;;6.40;92.00;;;;;;6096386;23;20296;-74
2021/04/07 17:23:46;;;;;;;1.23;0.83;;;6.30;92.30;;;;;;6097332;23;20222;-74
2021/04/07 17:26:12;;;;;;;3.00;0.80;;;6.20;92.50;;;;;;6092656;23;20180;-74
2021/04/07 17:28:39;;;;;;;1.67;0.60;;;6.10;93.20;;;;;;6096971;23;20199;-74
2021/04/07 17:31:05;;;;;;;2.37;0.97;;;6.20;93.20;;;;;;6096996;23;20665;-74
2021/04/07 17:33:31;;;;;;;1.20;0.70;;;6.10;93.60;;;;;;6097361;23;20180;-74
2021/04/07 17:35:58;;;;;;;3.93;0.57;;;6.20;93.40;;;;;;6097150;23;20191;-74
2021/04/07 17:38:27;;;;;;;3.43;1.10;;;6.20;93.20;;;;;;6097170;23;20199;-74
2021/04/07 17:40:54;;;;;;;3.77;0.80;;;6.10;92.90;;;;;;6096159;23;20207;-74
2021/04/07 17:43:21;;;;;;;3.83;0.80;;;6.00;93.50;;;;;;6096571;23;20183;-74
2021/04/07 17:45:47;;;;;;;5.03;0.90;;;6.00;94.00;;;;;;6096927;23;20639;-74
2021/04/07 17:48:14;;;;;;;1.07;0.80;;;6.00;93.80;;;;;;6097160;23;20214;-73
2021/04/07 17:50:40;;;;;;;1.73;0.80;;;5.90;93.50;;;;;;6096956;23;20179;-73
2021/04/07 17:53:07;;;;;;;1.70;1.10;;;6.00;93.50;;;;;;6097105;23;20180;-73
2021/04/07 17:55:34;;;;;;;3.23;0.83;;;5.90;93.30;;;;;;6096721;23;20182;-73
2021/04/07 17:58:00;;;;;;;2.70;0.60;;;5.80;93.70;;;;;;6096883;23;20203;-73
2021/04/07 18:00:27;;;;;;;3.03;0.73;;;5.70;93.50;;;;;;6097036;23;20215;-73
2021/04/07 18:02:54;;;;;;;3.77;0.80;;;5.70;94.50;;;;;;6096553;23;20550;-74
2021/04/07 18:05:21;;;;;;;2.13;0.90;;;5.70;94.20;;;;;;6096938;23;20194;-73
2021/04/07 18:07:47;;;;;;;4.30;1.33;;;5.80;94.40;;;;;;6096931;23;20260;-73
2021/04/07 18:10:14;;;;;;;1.37;0.80;;;5.70;94.40;;;;;;6097183;23;20189;-73
2021/04/07 18:12:41;;;;;;;3.83;0.77;;;5.80;94.70;;;;;;6096971;23;20186;-73
2021/04/07 18:15:11;;;;;;;2.80;0.90;;;5.80;94.40;;;;;;6096922;23;20190;-73
2021/04/07 18:17:51;;;;;;;10.67;1.37;;;5.90;93.80;;;;;;6096967;23;20200;-73
2021/04/07 18:20:18;;;;;;;4.83;1.20;;;5.90;94.50;;;;;;6096913;23;20210;-73
2021/04/07 18:22:44;;;;;;;4.93;0.90;;;5.80;94.80;;;;;;6097085;23;20189;-73
2021/04/07 18:25:11;;;;;;;2.40;0.90;;;5.70;94.70;;;;;;6096473;23;20198;-74
2021/04/07 18:27:39;;;;;;;6.37;1.00;;;5.50;94.40;;;;;;6096732;23;20208;-74
2021/04/07 18:30:09;;;;;;;1.93;0.80;;;5.40;94.40;;;;;;6097030;23;20180;-74
2021/04/07 18:32:36;;;;;;;2.40;0.80;;;5.40;94.20;;;;;;6096270;23;20195;-74
2021/04/07 18:35:03;;;;;;;1.97;0.77;;;5.40;94.00;;;;;;6096679;23;20604;-73
2021/04/07 18:37:29;;;;;;;6.00;1.00;;;5.50;94.30;;;;;;6097484;23;20203;-74
2021/04/07 18:39:55;;;;;;;3.00;0.73;;;5.50;94.10;;;;;;6096421;23;20659;-74
2021/04/07 18:42:21;;;;;;;3.30;1.07;;;5.60;93.90;;;;;;6096140;23;20191;-74
2021/04/07 18:44:48;;;;;;;2.77;1.13;;;5.60;94.20;;;;;;6096935;23;20489;-74
2021/04/07 18:47:15;;;;;;;3.03;1.00;;;5.60;94.30;;;;;;6096759;23;20206;-74
2021/04/07 18:49:41;;;;;;;6.77;1.00;;;5.60;94.70;;;;;;6097106;23;20210;-74
2021/04/07 18:52:07;;;;;;;5.83;0.90;;;5.70;94.90;;;;;;6096923;23;20188;-74
2021/04/07 18:54:34;;;;;;;5.33;1.37;;;5.70;94.70;;;;;;6092771;23;20180;-73
2021/04/07 18:57:00;;;;;;;2.60;1.20;;;5.70;95.30;;;;;;6094384;23;20203;-73
2021/04/07 18:59:26;;;;;;;2.27;1.23;;;5.60;96.00;;;;;;6095651;23;20180;-73
2021/04/07 19:01:53;;;;;;;4.87;1.30;;;5.60;96.70;;;;;;6095070;23;20700;-73
2021/04/07 19:04:20;;;;;;;3.13;1.10;;;5.60;97.30;;;;;;6095838;23;20180;-73
2021/04/07 19:06:46;;;;;;;4.50;1.13;;;5.60;97.60;;;;;;6095631;23;20749;-73
2021/04/07 19:09:12;;;;;;;3.50;1.50;;;5.70;97.70;;;;;;6096093;23;20239;-73
2021/04/07 19:11:38;;;;;;;2.40;1.37;;;5.80;98.20;;;;;;6095841;23;20180;-73
2021/04/07 19:14:05;;;;;;;3.13;1.73;;;5.70;98.60;;;;;;6096029;23;20179;-73
2021/04/07 19:16:31;;;;;;;3.03;1.57;;;5.70;98.60;;;;;;6095771;23;20183;-73
2021/04/07 19:19:00;;;;;;;2.60;1.30;;;5.60;98.90;;;;;;6095401;23;20635;-73
2021/04/07 19:21:27;;;;;;;4.03;1.40;;;5.70;99.40;;;;;;6096031;23;20208;-73
2021/04/07 19:23:54;;;;;;;2.00;1.00;;;5.80;99.30;;;;;;6095335;23;20187;-74
2021/04/07 19:26:21;;;;;;;1.97;1.30;;;5.70;99.20;;;;;;6095234;23;20191;-73
2021/04/07 19:28:47;;;;;;;3.20;1.60;;;5.70;99.40;;;;;;6095506;23;20187;-73
2021/04/07 19:31:14;;;;;;;3.27;1.60;;;5.70;99.70;;;;;;6095795;23;20234;-73
2021/04/07 19:33:40;;;;;;;3.47;1.77;;;5.60;99.50;;;;;;6095683;23;20247;-73
2021/04/07 19:36:06;;;;;;;4.00;1.63;;;5.50;99.90;;;;;;6097433;23;20180;-72
2021/04/07 19:38:33;;;;;;;4.43;1.33;;;5.30;99.80;;;;;;6097297;23;20203;-73
2021/04/07 19:41:00;;;;;;;5.07;1.33;;;5.30;99.90;;;;;;6096882;23;20247;-72
2021/04/07 19:43:26;;;;;;;4.30;1.53;;;5.10;99.90;;;;;;6096741;23;20618;-73